sensor_id;sensor_type;location;lat;lon;timestamp;pressure;altitude;pressure_sealevel;temperature;humidity
74936;BME280;63501;55.570;37.488;2022-11-15T03:53:51;99665.38;;;-3.22;62.71
74936;BME280;63501;55.570;37.488;2022-11-15T03:56:17;99662.28;;;-3.15;63.10
74936;BME280;63501;55.570;37.488;2022-11-15T03:58:42;99659.22;;;-3.09;64.13
74936;BME280;63501;55.570;37.488;2022-11-15T04:01:08;99662.56;;;-2.98;64.06
74936;BME280;63501;55.570;37.488;2022-11-15T04:03:33;99667.78;;;-2.88;64.35
74936;BME280;63501;55.570;37.488;2022-11-15T04:05:59;99665.41;;;-2.76;64.20
74936;BME280;63501;55.570;37.488;2022-11-15T04:08:24;99652.81;;;-2.67;63.96
74936;BME280;63501;55.570;37.488;2022-11-15T04:10:51;99653.53;;;-2.61;64.02
74936;BME280;63501;55.570;37.488;2022-11-15T04:13:17;99656.63;;;-2.54;63.74
74936;BME280;63501;55.570;37.488;2022-11-15T04:15:42;99652.72;;;-2.48;63.32
74936;BME280;63501;55.570;37.488;2022-11-15T04:18:08;99649.13;;;-2.43;63.59
74936;BME280;63501;55.570;37.488;2022-11-15T04:20:33;99656.84;;;-2.36;62.87
74936;BME280;63501;55.570;37.488;2022-11-15T04:23:20;99656.25;;;-2.33;63.15
74936;BME280;63501;55.570;37.488;2022-11-15T04:26:10;99659.19;;;-2.30;63.09
74936;BME280;63501;55.570;37.488;2022-11-15T04:28:36;99649.31;;;-2.26;63.55
74936;BME280;63501;55.570;37.488;2022-11-15T04:31:22;99647.13;;;-2.24;63.38
74936;BME280;63501;55.570;37.488;2022-11-15T04:33:47;99644.03;;;-2.17;62.92
74936;BME280;63501;55.570;37.488;2022-11-15T04:36:13;99642.31;;;-2.13;62.29
74936;BME280;63501;55.570;37.488;2022-11-15T04:38:57;99641.38;;;-2.08;62.26
74936;BME280;63501;55.570;37.488;2022-11-15T04:41:22;99644.91;;;-2.08;62.70
74936;BME280;63501;55.570;37.488;2022-11-15T04:43:48;99632.97;;;-2.07;62.23
74936;BME280;63501;55.570;37.488;2022-11-15T04:46:13;99632.47;;;-2.09;62.47
74936;BME280;63501;55.570;37.488;2022-11-15T04:48:39;99623.34;;;-2.13;60.61
74936;BME280;63501;55.570;37.488;2022-11-15T04:51:04;99625.75;;;-2.25;61.58
74936;BME280;63501;55.570;37.488;2022-11-15T04:53:30;99621.53;;;-2.31;61.15
74936;BME280;63501;55.570;37.488;2022-11-15T04:55:55;99624.88;;;-2.34;61.87
74936;BME280;63501;55.570;37.488;2022-11-15T04:58:21;99621.84;;;-2.33;62.14
74936;BME280;63501;55.570;37.488;2022-11-15T05:00:46;99616.66;;;-2.29;62.02
74936;BME280;63501;55.570;37.488;2022-11-15T05:03:12;99618.72;;;-2.26;61.13
74936;BME280;63501;55.570;37.488;2022-11-15T05:05:57;99620.84;;;-2.23;60.90
74936;BME280;63501;55.570;37.488;2022-11-15T05:08:23;99616.41;;;-2.19;61.56
74936;BME280;63501;55.570;37.488;2022-11-15T05:10:48;99612.63;;;-2.18;61.48
74936;BME280;63501;55.570;37.488;2022-11-15T05:13:14;99616.13;;;-2.18;60.16
74936;BME280;63501;55.570;37.488;2022-11-15T05:15:39;99616.34;;;-2.28;61.23
74936;BME280;63501;55.570;37.488;2022-11-15T05:18:05;99607.31;;;-2.37;59.74
74936;BME280;63501;55.570;37.488;2022-11-15T05:20:30;99608.44;;;-2.52;60.11
74936;BME280;63501;55.570;37.488;2022-11-15T05:22:56;99613.41;;;-2.59;60.53
74936;BME280;63501;55.570;37.488;2022-11-15T05:25:22;99621.34;;;-2.62;60.59
74936;BME280;63501;55.570;37.488;2022-11-15T05:27:48;99623.25;;;-2.63;60.91
74936;BME280;63501;55.570;37.488;2022-11-15T05:30:14;99610.69;;;-2.59;60.70
74936;BME280;63501;55.570;37.488;2022-11-15T05:32:40;99619.34;;;-2.57;61.03
74936;BME280;63501;55.570;37.488;2022-11-15T05:35:06;99613.13;;;-2.57;61.46
74936;BME280;63501;55.570;37.488;2022-11-15T05:37:34;99618.63;;;-2.49;61.36
74936;BME280;63501;55.570;37.488;2022-11-15T05:39:59;99612.53;;;-2.41;61.29
74936;BME280;63501;55.570;37.488;2022-11-15T05:42:26;99610.19;;;-2.47;60.57
74936;BME280;63501;55.570;37.488;2022-11-15T05:44:52;99602.38;;;-2.49;61.30
74936;BME280;63501;55.570;37.488;2022-11-15T05:47:23;99595.88;;;-2.48;61.12
74936;BME280;63501;55.570;37.488;2022-11-15T05:49:51;99600.69;;;-2.45;60.58
74936;BME280;63501;55.570;37.488;2022-11-15T05:52:21;99595.25;;;-2.31;61.08
74936;BME280;63501;55.570;37.488;2022-11-15T05:54:48;99586.34;;;-2.18;60.91
74936;BME280;63501;55.570;37.488;2022-11-15T05:57:15;99593.31;;;-2.03;60.16
74936;BME280;63501;55.570;37.488;2022-11-15T05:59:42;99583.78;;;-2.00;60.56
74936;BME280;63501;55.570;37.488;2022-11-15T06:02:10;99583.25;;;-1.89;61.13
74936;BME280;63501;55.570;37.488;2022-11-15T06:04:36;99584.53;;;-1.86;59.76
74936;BME280;63501;55.570;37.488;2022-11-15T06:07:02;99586.56;;;-1.92;59.53
74936;BME280;63501;55.570;37.488;2022-11-15T06:09:27;99578.25;;;-1.95;59.89
74936;BME280;63501;55.570;37.488;2022-11-15T06:11:53;99581.66;;;-1.90;59.19
74936;BME280;63501;55.570;37.488;2022-11-15T06:14:18;99579.66;;;-1.98;60.02
74936;BME280;63501;55.570;37.488;2022-11-15T06:16:44;99583.00;;;-2.01;59.40
74936;BME280;63501;55.570;37.488;2022-11-15T06:19:09;99588.63;;;-2.11;59.68
74936;BME280;63501;55.570;37.488;2022-11-15T06:21:35;99586.03;;;-2.16;59.60
74936;BME280;63501;55.570;37.488;2022-11-15T06:24:01;99573.06;;;-2.19;60.20
74936;BME280;63501;55.570;37.488;2022-11-15T06:26:26;99575.41;;;-2.26;59.88
74936;BME280;63501;55.570;37.488;2022-11-15T06:28:52;99571.69;;;-2.30;60.14
74936;BME280;63501;55.570;37.488;2022-11-15T06:31:17;99575.81;;;-2.33;60.37
74936;BME280;63501;55.570;37.488;2022-11-15T06:33:43;99574.00;;;-2.37;60.38
74936;BME280;63501;55.570;37.488;2022-11-15T06:36:11;99572.91;;;-2.36;60.64
74936;BME280;63501;55.570;37.488;2022-11-15T06:38:41;99563.19;;;-2.37;59.91
74936;BME280;63501;55.570;37.488;2022-11-15T06:41:08;99564.38;;;-2.44;60.70
74936;BME280;63501;55.570;37.488;2022-11-15T06:43:35;99567.19;;;-2.49;60.63
74936;BME280;63501;55.570;37.488;2022-11-15T06:46:02;99562.41;;;-2.52;59.91
74936;BME280;63501;55.570;37.488;2022-11-15T06:48:29;99564.00;;;-2.51;60.70
74936;BME280;63501;55.570;37.488;2022-11-15T06:50:57;99553.66;;;-2.49;60.35
74936;BME280;63501;55.570;37.488;2022-11-15T06:53:23;99553.34;;;-2.47;60.15
74936;BME280;63501;55.570;37.488;2022-11-15T06:55:49;99554.66;;;-2.45;60.58
74936;BME280;63501;55.570;37.488;2022-11-15T06:58:15;99550.06;;;-2.44;60.56
74936;BME280;63501;55.570;37.488;2022-11-15T07:00:41;99547.34;;;-2.44;60.58
74936;BME280;63501;55.570;37.488;2022-11-15T07:03:07;99546.53;;;-2.45;60.66
74936;BME280;63501;55.570;37.488;2022-11-15T07:05:33;99545.94;;;-2.42;60.85
74936;BME280;63501;55.570;37.488;2022-11-15T07:07:59;99538.31;;;-2.40;60.50
74936;BME280;63501;55.570;37.488;2022-11-15T07:10:25;99541.31;;;-2.27;60.76
74936;BME280;63501;55.570;37.488;2022-11-15T07:12:51;99527.66;;;-2.22;60.29
74936;BME280;63501;55.570;37.488;2022-11-15T07:15:19;99533.88;;;-2.22;59.98
74936;BME280;63501;55.570;37.488;2022-11-15T07:17:45;99533.38;;;-2.24;60.21
74936;BME280;63501;55.570;37.488;2022-11-15T07:20:11;99526.84;;;-2.23;60.00
74936;BME280;63501;55.570;37.488;2022-11-15T07:22:39;99529.75;;;-2.19;59.75
74936;BME280;63501;55.570;37.488;2022-11-15T07:25:04;99537.47;;;-2.13;60.20
74936;BME280;63501;55.570;37.488;2022-11-15T07:27:30;99528.00;;;-2.01;60.20
74936;BME280;63501;55.570;37.488;2022-11-15T07:29:56;99524.56;;;-1.93;59.48
74936;BME280;63501;55.570;37.488;2022-11-15T07:32:21;99513.91;;;-1.90;60.36
74936;BME280;63501;55.570;37.488;2022-11-15T07:34:47;99523.41;;;-1.78;60.45
74936;BME280;63501;55.570;37.488;2022-11-15T07:37:12;99522.28;;;-1.77;59.95
74936;BME280;63501;55.570;37.488;2022-11-15T07:39:38;99524.25;;;-1.92;59.13
74936;BME280;63501;55.570;37.488;2022-11-15T07:42:04;99525.91;;;-2.04;59.92
74936;BME280;63501;55.570;37.488;2022-11-15T07:44:48;99503.91;;;-2.03;59.59
74936;BME280;63501;55.570;37.488;2022-11-15T07:47:13;99502.81;;;-2.02;60.27
74936;BME280;63501;55.570;37.488;2022-11-15T07:49:39;99500.47;;;-1.95;60.23
74936;BME280;63501;55.570;37.488;2022-11-15T07:52:05;99499.38;;;-1.71;60.67
74936;BME280;63501;55.570;37.488;2022-11-15T07:54:30;99486.03;;;-1.68;60.03
74936;BME280;63501;55.570;37.488;2022-11-15T07:56:56;99486.63;;;-1.71;58.95
74936;BME280;63501;55.570;37.488;2022-11-15T07:59:21;99485.94;;;-1.76;59.61
74936;BME280;63501;55.570;37.488;2022-11-15T08:01:47;99484.34;;;-1.77;59.86
74936;BME280;63501;55.570;37.488;2022-11-15T08:04:12;99479.06;;;-1.82;59.47
74936;BME280;63501;55.570;37.488;2022-11-15T08:06:38;99475.19;;;-1.90;59.66
74936;BME280;63501;55.570;37.488;2022-11-15T08:09:04;99472.28;;;-1.94;59.39
74936;BME280;63501;55.570;37.488;2022-11-15T08:11:29;99471.16;;;-1.93;59.61
74936;BME280;63501;55.570;37.488;2022-11-15T08:13:55;99469.94;;;-1.87;60.07
74936;BME280;63501;55.570;37.488;2022-11-15T08:16:20;99466.28;;;-1.82;59.57
74936;BME280;63501;55.570;37.488;2022-11-15T08:18:46;99462.03;;;-1.74;60.04
74936;BME280;63501;55.570;37.488;2022-11-15T08:21:18;99463.22;;;-1.67;59.98
74936;BME280;63501;55.570;37.488;2022-11-15T08:23:44;99465.59;;;-1.65;59.37
74936;BME280;63501;55.570;37.488;2022-11-15T08:26:10;99460.53;;;-1.58;60.31
74936;BME280;63501;55.570;37.488;2022-11-15T08:28:35;99463.63;;;-1.51;59.50
74936;BME280;63501;55.570;37.488;2022-11-15T08:31:02;99455.97;;;-1.49;59.49
74936;BME280;63501;55.570;37.488;2022-11-15T08:33:28;99449.88;;;-1.54;60.31
74936;BME280;63501;55.570;37.488;2022-11-15T08:35:57;99438.59;;;-1.48;60.14
74936;BME280;63501;55.570;37.488;2022-11-15T08:38:22;99450.81;;;-1.59;58.45
74936;BME280;63501;55.570;37.488;2022-11-15T08:40:48;99448.22;;;-1.64;59.50
74936;BME280;63501;55.570;37.488;2022-11-15T08:43:13;99441.34;;;-1.70;59.90
74936;BME280;63501;55.570;37.488;2022-11-15T08:45:39;99444.19;;;-1.75;59.40
74936;BME280;63501;55.570;37.488;2022-11-15T08:48:04;99444.41;;;-1.86;59.92
74936;BME280;63501;55.570;37.488;2022-11-15T08:50:31;99448.38;;;-1.92;60.15
74936;BME280;63501;55.570;37.488;2022-11-15T08:52:57;99430.03;;;-1.95;60.01
74936;BME280;63501;55.570;37.488;2022-11-15T08:55:22;99432.63;;;-1.90;60.15
74936;BME280;63501;55.570;37.488;2022-11-15T08:57:48;99438.88;;;-1.80;60.17
74936;BME280;63501;55.570;37.488;2022-11-15T09:00:14;99440.19;;;-1.78;60.33
74936;BME280;63501;55.570;37.488;2022-11-15T09:02:40;99438.59;;;-1.79;59.81
74936;BME280;63501;55.570;37.488;2022-11-15T09:05:06;99436.00;;;-1.84;60.24
74936;BME280;63501;55.570;37.488;2022-11-15T09:07:32;99436.94;;;-1.89;60.11
74936;BME280;63501;55.570;37.488;2022-11-15T09:09:57;99432.78;;;-1.86;60.67
74936;BME280;63501;55.570;37.488;2022-11-15T09:12:23;99432.38;;;-1.79;60.58
74936;BME280;63501;55.570;37.488;2022-11-15T09:14:49;99427.75;;;-1.79;59.87
74936;BME280;63501;55.570;37.488;2022-11-15T09:17:14;99434.09;;;-1.83;59.98
74936;BME280;63501;55.570;37.488;2022-11-15T09:19:40;99422.13;;;-1.82;60.60
74936;BME280;63501;55.570;37.488;2022-11-15T09:22:07;99417.06;;;-1.75;60.19
74936;BME280;63501;55.570;37.488;2022-11-15T09:24:33;99415.91;;;-1.83;60.52
74936;BME280;63501;55.570;37.488;2022-11-15T09:26:59;99410.44;;;-1.92;60.50
74936;BME280;63501;55.570;37.488;2022-11-15T09:29:24;99414.69;;;-1.99;60.69
74936;BME280;63501;55.570;37.488;2022-11-15T09:31:52;99409.75;;;-1.97;60.49
74936;BME280;63501;55.570;37.488;2022-11-15T09:34:17;99407.72;;;-1.92;60.93
74936;BME280;63501;55.570;37.488;2022-11-15T09:36:43;99398.06;;;-1.84;61.39
74936;BME280;63501;55.570;37.488;2022-11-15T09:39:09;99404.94;;;-1.78;60.56
74936;BME280;63501;55.570;37.488;2022-11-15T09:49:58;99385.53;;;-1.71;60.02
74936;BME280;63501;55.570;37.488;2022-11-15T09:52:30;99376.91;;;-1.73;59.99
74936;BME280;63501;55.570;37.488;2022-11-15T09:54:55;99378.69;;;-1.69;60.32
74936;BME280;63501;55.570;37.488;2022-11-15T10:05:19;99375.81;;;-1.72;60.34
74936;BME280;63501;55.570;37.488;2022-11-15T10:10:42;99358.91;;;-1.69;61.22
74936;BME280;63501;55.570;37.488;2022-11-15T10:13:30;99357.69;;;-1.54;61.10
74936;BME280;63501;55.570;37.488;2022-11-15T10:24:41;99352.38;;;-1.28;60.75
74936;BME280;63501;55.570;37.488;2022-11-15T10:27:15;99351.72;;;-1.25;60.63
74936;BME280;63501;55.570;37.488;2022-11-15T10:29:46;99351.25;;;-1.27;59.75
74936;BME280;63501;55.570;37.488;2022-11-15T10:32:13;99352.66;;;-1.39;59.65
74936;BME280;63501;55.570;37.488;2022-11-15T10:34:39;99344.66;;;-1.44;60.11
74936;BME280;63501;55.570;37.488;2022-11-15T10:37:05;99340.50;;;-1.41;60.27
74936;BME280;63501;55.570;37.488;2022-11-15T10:39:31;99322.31;;;-1.41;59.55
74936;BME280;63501;55.570;37.488;2022-11-15T10:42:15;99334.63;;;-1.43;60.08
74936;BME280;63501;55.570;37.488;2022-11-15T10:44:42;99327.94;;;-1.37;60.47
74936;BME280;63501;55.570;37.488;2022-11-15T10:47:29;99319.81;;;-1.28;60.18
74936;BME280;63501;55.570;37.488;2022-11-15T10:52:22;99311.81;;;-1.42;60.46
74936;BME280;63501;55.570;37.488;2022-11-15T10:54:56;99300.00;;;-1.38;60.12
74936;BME280;63501;55.570;37.488;2022-11-15T10:57:29;99303.84;;;-1.30;60.88
74936;BME280;63501;55.570;37.488;2022-11-15T11:00:01;99293.81;;;-1.21;61.01
74936;BME280;63501;55.570;37.488;2022-11-15T11:05:00;99279.63;;;-1.18;59.75
74936;BME280;63501;55.570;37.488;2022-11-15T11:07:30;99301.00;;;-1.16;60.47
74936;BME280;63501;55.570;37.488;2022-11-15T11:10:17;99293.97;;;-1.26;59.66
74936;BME280;63501;55.570;37.488;2022-11-15T11:12:42;99284.69;;;-1.42;60.09
74936;BME280;63501;55.570;37.488;2022-11-15T11:15:13;99290.09;;;-1.42;60.58
74936;BME280;63501;55.570;37.488;2022-11-15T11:32:01;99284.81;;;-1.56;60.84
74936;BME280;63501;55.570;37.488;2022-11-15T11:34:45;99286.84;;;-1.70;61.20
74936;BME280;63501;55.570;37.488;2022-11-15T11:42:50;99277.63;;;-2.00;63.06
74936;BME280;63501;55.570;37.488;2022-11-15T11:48:14;99283.19;;;-2.05;64.22
74936;BME280;63501;55.570;37.488;2022-11-15T11:50:44;99290.44;;;-2.23;66.60
74936;BME280;63501;55.570;37.488;2022-11-15T11:53:12;99284.59;;;-2.39;68.77
74936;BME280;63501;55.570;37.488;2022-11-15T11:58:14;99285.88;;;-2.81;71.96
74936;BME280;63501;55.570;37.488;2022-11-15T12:00:46;99282.44;;;-2.96;73.28
74936;BME280;63501;55.570;37.488;2022-11-15T12:06:36;99276.91;;;-3.13;75.17
74936;BME280;63501;55.570;37.488;2022-11-15T12:09:14;99273.50;;;-3.18;75.93
74936;BME280;63501;55.570;37.488;2022-11-15T12:17:16;99268.53;;;-3.25;77.04
74936;BME280;63501;55.570;37.488;2022-11-15T12:19:43;99263.91;;;-3.25;77.06
74936;BME280;63501;55.570;37.488;2022-11-15T12:25:08;99258.19;;;-3.23;77.63
74936;BME280;63501;55.570;37.488;2022-11-15T12:27:54;99246.88;;;-3.25;78.41
74936;BME280;63501;55.570;37.488;2022-11-15T12:30:22;99243.97;;;-3.29;78.42
74936;BME280;63501;55.570;37.488;2022-11-15T12:32:54;99249.09;;;-3.27;78.29
74936;BME280;63501;55.570;37.488;2022-11-15T12:35:42;99242.69;;;-3.31;78.75
74936;BME280;63501;55.570;37.488;2022-11-15T12:38:11;99246.47;;;-3.32;79.02
74936;BME280;63501;55.570;37.488;2022-11-15T12:41:12;99235.19;;;-3.34;79.57
74936;BME280;63501;55.570;37.488;2022-11-15T12:43:39;99218.75;;;-3.38;79.23
74936;BME280;63501;55.570;37.488;2022-11-15T12:46:11;99212.44;;;-3.33;78.86
74936;BME280;63501;55.570;37.488;2022-11-15T12:51:03;99202.53;;;-3.24;78.70
74936;BME280;63501;55.570;37.488;2022-11-15T12:53:31;99204.00;;;-3.18;78.16
74936;BME280;63501;55.570;37.488;2022-11-15T12:58:53;99205.16;;;-3.10;77.73
74936;BME280;63501;55.570;37.488;2022-11-15T13:07:00;99187.41;;;-3.25;79.52
74936;BME280;63501;55.570;37.488;2022-11-15T13:12:01;99176.09;;;-3.27;79.75
74936;BME280;63501;55.570;37.488;2022-11-15T13:17:02;99178.97;;;-3.24;80.17
74936;BME280;63501;55.570;37.488;2022-11-15T13:19:28;99168.16;;;-3.24;79.07
74936;BME280;63501;55.570;37.488;2022-11-15T13:21:54;99164.84;;;-3.21;78.54
74936;BME280;63501;55.570;37.488;2022-11-15T13:24:38;99166.47;;;-3.20;79.27
74936;BME280;63501;55.570;37.488;2022-11-15T13:27:30;99167.25;;;-3.19;78.47
74936;BME280;63501;55.570;37.488;2022-11-15T13:29:56;99158.63;;;-3.21;79.00
74936;BME280;63501;55.570;37.488;2022-11-15T13:32:22;99158.50;;;-3.16;79.38
74936;BME280;63501;55.570;37.488;2022-11-15T13:34:49;99158.19;;;-3.14;78.98
74936;BME280;63501;55.570;37.488;2022-11-15T13:37:29;99158.88;;;-3.09;78.56
74936;BME280;63501;55.570;37.488;2022-11-15T13:40:15;99147.94;;;-3.04;78.75
74936;BME280;63501;55.570;37.488;2022-11-15T13:42:41;99141.44;;;-3.03;78.65
74936;BME280;63501;55.570;37.488;2022-11-15T13:45:13;99144.06;;;-3.11;79.85
74936;BME280;63501;55.570;37.488;2022-11-15T13:47:39;99138.97;;;-3.13;79.57
74936;BME280;63501;55.570;37.488;2022-11-15T13:50:05;99141.19;;;-3.15;80.27
74936;BME280;63501;55.570;37.488;2022-11-15T13:52:36;99133.06;;;-3.15;79.79
74936;BME280;63501;55.570;37.488;2022-11-15T14:00:25;99126.16;;;-2.99;79.74
74936;BME280;63501;55.570;37.488;2022-11-15T14:02:51;99122.84;;;-2.96;79.60
74936;BME280;63501;55.570;37.488;2022-11-15T14:05:19;99118.44;;;-2.91;79.63
74936;BME280;63501;55.570;37.488;2022-11-15T14:10:30;99115.56;;;-2.86;79.50
74936;BME280;63501;55.570;37.488;2022-11-15T14:12:57;99107.97;;;-2.84;79.56
74936;BME280;63501;55.570;37.488;2022-11-15T14:15:36;99105.84;;;-2.87;79.48
74936;BME280;63501;55.570;37.488;2022-11-15T14:18:03;99106.66;;;-2.87;79.07
74936;BME280;63501;55.570;37.488;2022-11-15T14:20:33;99106.38;;;-2.85;79.20
74936;BME280;63501;55.570;37.488;2022-11-15T14:23:20;99102.69;;;-2.89;79.26
74936;BME280;63501;55.570;37.488;2022-11-15T14:25:58;99096.78;;;-2.91;79.72
74936;BME280;63501;55.570;37.488;2022-11-15T14:30:52;99092.47;;;-2.93;79.58
74936;BME280;63501;55.570;37.488;2022-11-15T14:33:30;99088.94;;;-3.02;80.01
74936;BME280;63501;55.570;37.488;2022-11-15T14:36:02;99090.34;;;-3.04;80.76
74936;BME280;63501;55.570;37.488;2022-11-15T14:38:28;99081.94;;;-3.03;80.06
74936;BME280;63501;55.570;37.488;2022-11-15T14:40:54;99075.09;;;-3.00;79.29
74936;BME280;63501;55.570;37.488;2022-11-15T14:43:21;99084.47;;;-2.98;79.43
74936;BME280;63501;55.570;37.488;2022-11-15T14:45:46;99070.66;;;-2.96;79.90
74936;BME280;63501;55.570;37.488;2022-11-15T14:48:12;99067.31;;;-2.93;79.77
74936;BME280;63501;55.570;37.488;2022-11-15T14:50:37;99064.31;;;-2.91;79.81
74936;BME280;63501;55.570;37.488;2022-11-15T14:53:04;99059.53;;;-2.95;79.93
74936;BME280;63501;55.570;37.488;2022-11-15T14:55:32;99064.63;;;-2.93;79.69
74936;BME280;63501;55.570;37.488;2022-11-15T14:58:01;99066.41;;;-2.88;80.29
74936;BME280;63501;55.570;37.488;2022-11-15T15:00:32;99060.97;;;-2.88;80.25
74936;BME280;63501;55.570;37.488;2022-11-15T15:02:58;99059.06;;;-2.88;79.86
74936;BME280;63501;55.570;37.488;2022-11-15T15:05:35;99066.88;;;-2.86;80.13
74936;BME280;63501;55.570;37.488;2022-11-15T15:08:01;99042.84;;;-2.88;79.75
74936;BME280;63501;55.570;37.488;2022-11-15T15:10:42;99042.53;;;-2.86;79.50
74936;BME280;63501;55.570;37.488;2022-11-15T15:13:16;99044.75;;;-2.88;80.19
74936;BME280;63501;55.570;37.488;2022-11-15T15:15:42;99045.88;;;-2.89;79.45
74936;BME280;63501;55.570;37.488;2022-11-15T15:18:07;99048.56;;;-2.89;80.09
74936;BME280;63501;55.570;37.488;2022-11-15T15:20:34;99045.41;;;-2.91;79.71
74936;BME280;63501;55.570;37.488;2022-11-15T15:23:01;99050.81;;;-2.91;79.93
74936;BME280;63501;55.570;37.488;2022-11-15T15:25:34;99039.78;;;-2.95;79.68
74936;BME280;63501;55.570;37.488;2022-11-15T15:28:02;99043.63;;;-2.96;80.47
74936;BME280;63501;55.570;37.488;2022-11-15T15:30:29;99035.78;;;-2.98;79.53
74936;BME280;63501;55.570;37.488;2022-11-15T15:32:55;99037.41;;;-2.97;79.95
74936;BME280;63501;55.570;37.488;2022-11-15T15:35:22;99022.78;;;-2.96;80.12
74936;BME280;63501;55.570;37.488;2022-11-15T15:37:48;99024.56;;;-2.91;80.18
74936;BME280;63501;55.570;37.488;2022-11-15T15:40:20;99016.59;;;-2.87;79.85
74936;BME280;63501;55.570;37.488;2022-11-15T15:42:47;99014.38;;;-2.85;79.61
74936;BME280;63501;55.570;37.488;2022-11-15T15:45:12;99007.22;;;-2.81;79.96
74936;BME280;63501;55.570;37.488;2022-11-15T15:47:38;99006.75;;;-2.83;80.60
74936;BME280;63501;55.570;37.488;2022-11-15T15:50:35;99001.16;;;-2.87;80.25
74936;BME280;63501;55.570;37.488;2022-11-15T15:53:02;98991.44;;;-2.88;80.05
74936;BME280;63501;55.570;37.488;2022-11-15T15:55:28;98986.81;;;-2.87;79.99
74936;BME280;63501;55.570;37.488;2022-11-15T15:57:54;98997.66;;;-2.87;80.35
74936;BME280;63501;55.570;37.488;2022-11-15T16:00:21;98987.94;;;-2.88;80.11
74936;BME280;63501;55.570;37.488;2022-11-15T16:02:49;98978.72;;;-2.87;79.80
74936;BME280;63501;55.570;37.488;2022-11-15T16:05:15;98982.41;;;-2.83;80.58
74936;BME280;63501;55.570;37.488;2022-11-15T16:07:41;98977.78;;;-2.83;80.87
74936;BME280;63501;55.570;37.488;2022-11-15T16:10:17;98977.47;;;-2.81;80.18
74936;BME280;63501;55.570;37.488;2022-11-15T16:12:43;98972.03;;;-2.81;80.62
74936;BME280;63501;55.570;37.488;2022-11-15T16:15:09;98974.47;;;-2.80;80.33
74936;BME280;63501;55.570;37.488;2022-11-15T16:17:38;98966.81;;;-2.78;80.85
74936;BME280;63501;55.570;37.488;2022-11-15T16:20:05;98967.59;;;-2.77;80.99
74936;BME280;63501;55.570;37.488;2022-11-15T16:22:31;98961.41;;;-2.78;80.37
74936;BME280;63501;55.570;37.488;2022-11-15T16:24:56;98957.75;;;-2.73;80.50
74936;BME280;63501;55.570;37.488;2022-11-15T16:27:22;98958.22;;;-2.71;80.37
74936;BME280;63501;55.570;37.488;2022-11-15T16:29:49;98968.56;;;-2.73;81.05
74936;BME280;63501;55.570;37.488;2022-11-15T16:32:15;98961.88;;;-2.76;80.82
74936;BME280;63501;55.570;37.488;2022-11-15T16:34:41;98967.28;;;-2.76;80.80
74936;BME280;63501;55.570;37.488;2022-11-15T16:37:33;98950.09;;;-2.80;81.28
74936;BME280;63501;55.570;37.488;2022-11-15T16:39:58;98954.72;;;-2.80;81.15
74936;BME280;63501;55.570;37.488;2022-11-15T16:42:24;98949.00;;;-2.79;80.81
74936;BME280;63501;55.570;37.488;2022-11-15T16:44:49;98954.56;;;-2.75;81.21
74936;BME280;63501;55.570;37.488;2022-11-15T16:47:18;98952.66;;;-2.75;81.11
74936;BME280;63501;55.570;37.488;2022-11-15T16:49:44;98951.22;;;-2.72;81.24
74936;BME280;63501;55.570;37.488;2022-11-15T16:52:10;98955.84;;;-2.73;81.10
74936;BME280;63501;55.570;37.488;2022-11-15T16:54:36;98945.34;;;-2.74;80.84
74936;BME280;63501;55.570;37.488;2022-11-15T16:57:01;98943.72;;;-2.75;81.18
74936;BME280;63501;55.570;37.488;2022-11-15T16:59:27;98940.22;;;-2.76;80.91
74936;BME280;63501;55.570;37.488;2022-11-15T17:01:52;98945.50;;;-2.79;80.82
74936;BME280;63501;55.570;37.488;2022-11-15T17:04:18;98947.88;;;-2.78;81.66
74936;BME280;63501;55.570;37.488;2022-11-15T17:06:46;98955.66;;;-2.76;80.90
74936;BME280;63501;55.570;37.488;2022-11-15T17:09:17;98948.66;;;-2.77;81.25
74936;BME280;63501;55.570;37.488;2022-11-15T17:11:43;98943.06;;;-2.81;80.65
74936;BME280;63501;55.570;37.488;2022-11-15T17:14:09;98946.09;;;-2.82;81.97
74936;BME280;63501;55.570;37.488;2022-11-15T17:16:35;98931.78;;;-2.83;81.41
74936;BME280;63501;55.570;37.488;2022-11-15T17:19:11;98935.28;;;-2.82;80.93
74936;BME280;63501;55.570;37.488;2022-11-15T17:21:37;98931.97;;;-2.79;81.57
74936;BME280;63501;55.570;37.488;2022-11-15T17:24:02;98941.34;;;-2.77;81.28
74936;BME280;63501;55.570;37.488;2022-11-15T17:26:28;98933.72;;;-2.75;81.21
74936;BME280;63501;55.570;37.488;2022-11-15T17:28:54;98924.97;;;-2.72;80.95
74936;BME280;63501;55.570;37.488;2022-11-15T17:31:21;98933.25;;;-2.68;81.57
74936;BME280;63501;55.570;37.488;2022-11-15T17:33:47;98930.56;;;-2.68;81.32
74936;BME280;63501;55.570;37.488;2022-11-15T17:36:12;98933.25;;;-2.68;80.78
74936;BME280;63501;55.570;37.488;2022-11-15T17:38:40;98925.44;;;-2.70;81.14
74936;BME280;63501;55.570;37.488;2022-11-15T17:41:11;98923.56;;;-2.69;81.28
74936;BME280;63501;55.570;37.488;2022-11-15T17:43:37;98923.56;;;-2.69;81.17
74936;BME280;63501;55.570;37.488;2022-11-15T17:46:05;98926.72;;;-2.67;81.44
74936;BME280;63501;55.570;37.488;2022-11-15T17:48:31;98925.13;;;-2.68;81.55
74936;BME280;63501;55.570;37.488;2022-11-15T17:51:02;98928.31;;;-2.66;81.13
74936;BME280;63501;55.570;37.488;2022-11-15T17:53:32;98917.50;;;-2.66;81.60
74936;BME280;63501;55.570;37.488;2022-11-15T17:56:02;98911.75;;;-2.64;82.13
74936;BME280;63501;55.570;37.488;2022-11-15T17:58:29;98902.19;;;-2.71;81.98
74936;BME280;63501;55.570;37.488;2022-11-15T18:00:54;98909.69;;;-2.68;81.78
74936;BME280;63501;55.570;37.488;2022-11-15T18:03:20;98904.91;;;-2.71;81.13
74936;BME280;63501;55.570;37.488;2022-11-15T18:05:46;98897.09;;;-2.72;81.55
74936;BME280;63501;55.570;37.488;2022-11-15T18:08:12;98902.53;;;-2.72;82.04
74936;BME280;63501;55.570;37.488;2022-11-15T18:10:41;98902.84;;;-2.74;81.54
74936;BME280;63501;55.570;37.488;2022-11-15T18:13:08;98897.09;;;-2.72;81.67
74936;BME280;63501;55.570;37.488;2022-11-15T18:15:34;98895.19;;;-2.72;81.09
74936;BME280;63501;55.570;37.488;2022-11-15T18:17:59;98889.47;;;-2.70;81.66
74936;BME280;63501;55.570;37.488;2022-11-15T18:20:25;98891.88;;;-2.69;80.91
74936;BME280;63501;55.570;37.488;2022-11-15T18:22:54;98884.84;;;-2.70;81.50
74936;BME280;63501;55.570;37.488;2022-11-15T18:25:19;98886.13;;;-2.67;82.04